This is the latest recevied weather packets stored in our database for station/object KF0FSA. If no packets are shown the sender has not sent any weather packets the latest 10 day(s).
| Time | Temp. | Humidity | Pressure | Rain* | Wind** | Luminosity | Snow |
|---|---|---|---|---|---|---|---|
| 1778006935 | 10° C | 36% | 959.2 hPa | 0 mm | - | 1290 W/m² | - |
| 1778006635 | 10° C | 36% | 959.7 hPa | 0 mm | - | 551 W/m² | - |
| 1778006335 | 9.44° C | 39% | 959.6 hPa | 0 mm | - | 999 W/m² | - |
| 1778006035 | 9.44° C | 39% | 959.8 hPa | 0 mm | - | 428 W/m² | - |
| 1778005735 | 9.44° C | 38% | 959.8 hPa | 0 mm | - | 371 W/m² | - |
| 1778005560 | 9.44° C | 38% | 959.8 hPa | 0 mm | - | 477 W/m² | - |
| 1778005135 | 9.44° C | 39% | 959.9 hPa | 0 mm | - | 410 W/m² | - |
| 1778004836 | 9.44° C | 38% | 959.9 hPa | 0 mm | - | 477 W/m² | - |
| 1778004536 | 9.44° C | 38% | 959.9 hPa | 0 mm | - | 425 W/m² | - |
| 1778004235 | 9.44° C | 39% | 959.8 hPa | 0 mm | - | 506 W/m² | - |
| 1778003933 | 10° C | 38% | 959.8 hPa | 0 mm | - | 477 W/m² | - |
| 1778003633 | 10° C | 38% | 960 hPa | 0 mm | - | 423 W/m² | - |
| 1778003333 | 10° C | 37% | 959.8 hPa | 0 mm | - | 851 W/m² | - |
| 1778003033 | 10.56° C | 37% | 959.6 hPa | 0 mm | - | 985 W/m² | - |
| 1778002733 | 10° C | 40% | 960 hPa | 0 mm | - | 427 W/m² | - |
| 1778002433 | 10° C | 40% | 959.5 hPa | 0 mm | - | 1216 W/m² | - |
| 1778002131 | 8.89° C | 40% | 959.7 hPa | 0 mm | - | 1106 W/m² | - |
| 1778001955 | 9.44° C | 40% | 960.1 hPa | 0 mm | - | 421 W/m² | - |
| 1778001530 | 9.44° C | 39% | 960.1 hPa | 0 mm | - | 421 W/m² | - |
| 1778001230 | 9.44° C | 38% | 959.8 hPa | 0 mm | - | 469 W/m² | - |
| 1778000931 | 9.44° C | 40% | 959.8 hPa | 0 mm | - | 557 W/m² | - |
| 1778000631 | 9.44° C | 40% | 959.5 hPa | 0 mm | - | 910 W/m² | - |
| 1778000330 | 9.44° C | 39% | 959.9 hPa | 0 mm | - | 346 W/m² | - |
| 1778000031 | 9.44° C | 40% | 959.4 hPa | 0 mm | - | 976 W/m² | - |
| 1777999731 | 9.44° C | 39% | 959.8 hPa | 0 mm | - | 339 W/m² | - |
* Rain latest hour (hover to see other rain measurements)
** Current wind speed in m/s (hover to see current wind gust speed)